Kayenta, Utah
Current Conditions -  °F | °C
As of 4:35 PM on Monday 20 Oct 2014 (Local Time) from KSGU Reporting Station
Clear Clear  
Wind Chill: 88°   Ceiling: Unl
Heat Index: 88°   Visibility: 10mi
Dew Point: 39°   Wind: 9mph
Humidity: 18%   Direction: 70°ENE
Pressure: 29.9"   Gusts: NA
Location:  37.1829°N, 113.647°W
Report Text: KSGU 202235Z AUTO 07008KT 10SM CLR 31/04 A2990 RMK AO1
Loading
Personal Weather Stations






























Interactive Weather Map
Tropical Storm Tracking
New forecast layout! Learn more

10-Day Weather Forecast

Advertisements
Track Severe Weather on mobile